Orbital elements of COSMOS 970 DEB
| Launched | 20 December 1977 |
| Flight ended | – |
| Launch site | Tyuratam Missile and Space Center, Kazakhstan (Also known as Baikonur Cosmodrome) |
| Owner | Commonwealth of Independent States (former USSR) |
| NORAD ID | 10877 |
| Date fetched |
Epoch osculation |
Inc. [°] |
Ecc. | RA asc node [hr] |
Arg Peri. [°] |
Mean anom [°] |
Mean motion [rev/day] |
Abs. mag |
| Date fetched |
Epoch osculation |
Inc. [°] |
Ecc. | RA asc node [hr] |
Arg Peri. [°] |
Mean anom [°] |
Mean motion [rev/day] |
Abs. mag |
| 2026 May 03 17:57 | 2026 Apr 30 14:08:18 | 65.7679 | 0.01478 | 21.0985 | 323.8871 | 35.2275 | 13.76278 | – |
| 2026 May 02 17:57 | 2026 Apr 30 14:08:18 | 65.7679 | 0.01478 | 21.0985 | 323.8871 | 35.2275 | 13.76278 | – |
| 2026 May 01 17:56 | 2026 Apr 30 14:08:18 | 65.7679 | 0.01478 | 21.0985 | 323.8871 | 35.2275 | 13.76278 | – |
| 2026 Apr 30 17:56 | 2026 Apr 30 14:08:18 | 65.7679 | 0.01478 | 21.0985 | 323.8871 | 35.2275 | 13.76278 | – |
| 2026 Apr 29 17:57 | 2026 Apr 24 08:09:15 | 65.7685 | 0.01475 | 22.1331 | 326.7728 | 35.2275 | 13.76278 | – |
| 2026 Apr 28 17:56 | 2026 Apr 24 08:09:15 | 65.7685 | 0.01475 | 22.1331 | 326.7728 | 35.2275 | 13.76278 | – |
| 2026 Apr 27 17:58 | 2026 Apr 24 08:09:15 | 65.7685 | 0.01475 | 22.1331 | 326.7728 | 35.2275 | 13.76278 | – |
| 2026 Apr 26 17:58 | 2026 Apr 24 08:09:15 | 65.7685 | 0.01475 | 22.1331 | 326.7728 | 35.2275 | 13.76278 | – |
| 2026 Apr 25 17:58 | 2026 Apr 24 08:09:15 | 65.7685 | 0.01475 | 22.1331 | 326.7728 | 35.2275 | 13.76278 | – |
| 2026 Apr 24 17:59 | 2026 Apr 24 08:09:15 | 65.7685 | 0.01475 | 22.1331 | 326.7728 | 35.2275 | 13.76278 | – |
| 2026 Apr 23 17:57 | 2026 Apr 19 09:33:43 | 65.7692 | 0.01472 | 22.9512 | 329.0453 | 35.2275 | 13.76278 | – |
| 2026 Apr 22 17:57 | 2026 Apr 19 09:33:43 | 65.7692 | 0.01472 | 22.9512 | 329.0453 | 35.2275 | 13.76278 | – |
| 2026 Apr 21 17:57 | 2026 Apr 19 09:33:43 | 65.7692 | 0.01472 | 22.9512 | 329.0453 | 35.2275 | 13.76278 | – |
| 2026 Apr 20 17:57 | 2026 Apr 19 09:33:43 | 65.7692 | 0.01472 | 22.9512 | 329.0453 | 35.2275 | 13.76278 | – |
| 2026 Apr 19 17:58 | 2026 Apr 19 09:33:43 | 65.7692 | 0.01472 | 22.9512 | 329.0453 | 35.2275 | 13.76278 | – |
| 2026 Apr 18 17:56 | 2026 Apr 13 01:50:00 | 65.7699 | 0.01469 | 23.9977 | 331.9465 | 35.2275 | 13.76278 | – |
| 2026 Apr 16 17:57 | 2026 Apr 13 01:50:00 | 65.7699 | 0.01469 | 23.9977 | 331.9465 | 35.2275 | 13.76278 | – |
| 2026 Apr 14 17:57 | 2026 Apr 13 01:50:00 | 65.7699 | 0.01469 | 23.9977 | 331.9465 | 35.2275 | 13.76278 | – |
| 2026 Apr 13 17:57 | 2026 Apr 13 01:50:00 | 65.7699 | 0.01469 | 23.9977 | 331.9465 | 35.2275 | 13.76278 | – |
| 2026 Apr 12 17:57 | 2026 Apr 08 11:57:38 | 65.7701 | 0.01466 | 0.7555 | 334.0418 | 35.2275 | 13.76278 | – |
| 2026 Apr 11 17:57 | 2026 Apr 08 11:57:38 | 65.7701 | 0.01466 | 0.7555 | 334.0418 | 35.2275 | 13.76278 | – |
| 2026 Apr 10 17:58 | 2026 Apr 08 11:57:38 | 65.7701 | 0.01466 | 0.7555 | 334.0418 | 35.2275 | 13.76278 | – |
| 2026 Apr 09 18:01 | 2026 Apr 08 11:57:38 | 65.7701 | 0.01466 | 0.7555 | 334.0418 | 35.2275 | 13.76278 | – |
| 2026 Apr 08 17:57 | 2026 Apr 08 11:57:38 | 65.7701 | 0.01466 | 0.7555 | 334.0418 | 35.2275 | 13.76278 | – |
| 2026 Apr 07 17:57 | 2026 Apr 02 07:43:10 | 65.7696 | 0.01462 | 1.7780 | 336.8663 | 35.2275 | 13.76278 | – |
| 2026 Apr 06 17:57 | 2026 Apr 02 07:43:10 | 65.7696 | 0.01462 | 1.7780 | 336.8663 | 35.2275 | 13.76278 | – |